Terminal Aerodrome Forecast
Issued by NWS North Platte, NE

Home | Current Version | Previous Version | Text Only | Print | Product List | Glossary Off
Versions: 1 2 3 4 5 6 7 8 9 10 11 12 13 14 15 16 17 18

000
FTUS43 KLBF 220520
TAFVTN
TAF
KVTN 220520Z 2206/2306 15020G28KT P6SM BKN020
     FM221000 16015G22KT P6SM OVC011
     FM221600 18018G25KT P6SM OVC015
     FM221900 17020G28KT P6SM BKN050
     FM222300 17017G24KT P6SM VCTS BKN050CB
      TEMPO 2223/2303 VRB25G40KT 4SM TSRA BKN040CB
     FM230300 23015G22KT P6SM -TSRA BKN050CB=

USA.gov is the U.S. government's official web portal to all federal, state and local government web resources and services.